Time;durP1;ratioP1;P1;durP2;ratioP2;P2;SDS_P1;SDS_P2;PMS_P1;PMS_P2;Temp;Humidity;BMP_temperature;BMP_pressure;BME280_temperature;BME280_humidity;BME280_pressure;Samples;Min_cycle;Max_cycle;Signal;HPM_P1;HPM_P2
2022/06/04 00:00:14;;;;;;;;;;;20.00;94.50;;;;;;6186243;23;19970;-88
2022/06/04 00:02:40;;;;;;;;;;;20.10;94.60;;;;;;6186292;23;20404;-89
2022/06/04 00:05:07;;;;;;;;;;;20.10;94.50;;;;;;6186299;23;19984;-89
2022/06/04 00:07:32;;;;;;;;;;;20.10;94.50;;;;;;6186257;23;19999;-89
2022/06/04 00:15:29;;;;;;;;;;;19.80;94.00;;;;;;6186225;23;20008;-89
2022/06/04 00:17:55;;;;;;;;;;;19.90;94.10;;;;;;6186034;23;19946;-89
2022/06/04 00:20:21;;;;;;;;;;;19.90;94.10;;;;;;6186170;23;19938;-89
2022/06/04 00:22:46;;;;;;;;;;;19.90;94.00;;;;;;6186410;23;19949;-89
2022/06/04 00:25:13;;;;;;;;;;;19.90;93.90;;;;;;6159437;23;20388;-89
2022/06/04 00:27:38;;;;;;;;;;;20.00;93.90;;;;;;6186009;23;19950;-89
2022/06/04 00:30:05;;;;;;;;;;;20.00;93.80;;;;;;6185995;23;20010;-89
2022/06/04 00:32:33;;;;;;;;;;;20.00;93.80;;;;;;6186335;23;19987;-89
2022/06/04 00:35:02;;;;;;;;;;;19.90;93.60;;;;;;6186244;23;19979;-89
2022/06/04 00:37:30;;;;;;;;;;;19.80;93.20;;;;;;6159542;23;20398;-89
2022/06/04 00:39:58;;;;;;;;;;;19.70;93.10;;;;;;6185796;23;19963;-89
2022/06/04 00:42:23;;;;;;;;;;;19.60;93.00;;;;;;6185855;23;19989;-89
2022/06/04 00:45:07;;;;;;;;;;;19.50;92.70;;;;;;6185706;23;20031;-88
2022/06/04 00:47:36;;;;;;;;;;;19.50;92.90;;;;;;6162903;23;20360;-88
2022/06/04 00:50:02;;;;;;;;;;;19.50;93.00;;;;;;6126596;23;19938;-88
2022/06/04 00:52:27;;;;;;;;;;;19.50;93.00;;;;;;6126542;23;19942;-89
2022/06/04 00:54:54;;;;;;;;;;;19.50;92.80;;;;;;6126694;23;19935;-89
2022/06/04 00:57:33;;;;;;;;;;;19.40;92.90;;;;;;6126532;23;19939;-88
2022/06/04 01:00:05;;;;;;;;;;;19.30;92.50;;;;;;6126381;23;19991;-89
2022/06/04 01:02:34;;;;;;;;;;;19.10;92.30;;;;;;6100461;23;19966;-88
2022/06/04 01:05:18;;;;;;;;;;;19.00;92.60;;;;;;6126656;23;19949;-89
2022/06/04 01:07:47;;;;;;;;;;;19.00;92.70;;;;;;6126346;23;20387;-88
2022/06/04 01:10:16;;;;;;;;;;;19.00;93.00;;;;;;6126467;23;20369;-89
2022/06/04 01:12:59;;;;;;;;;;;19.00;93.00;;;;;;6126419;23;20336;-88
2022/06/04 01:15:37;;;;;;;;;;;19.00;93.00;;;;;;6126366;23;20351;-88
2022/06/04 01:18:14;;;;;;;;;;;19.10;93.40;;;;;;6126280;23;19958;-88
2022/06/04 01:20:51;;;;;;;;;;;19.10;93.70;;;;;;6126208;23;19945;-88
2022/06/04 01:23:16;;;;;;;;;;;19.20;93.80;;;;;;6126241;23;20260;-89
2022/06/04 01:25:42;;;;;;;;;;;19.20;93.60;;;;;;6126416;23;19935;-89
2022/06/04 01:28:14;;;;;;;;;;;19.30;93.60;;;;;;6126345;23;19935;-89
2022/06/04 01:30:43;;;;;;;;;;;19.20;93.40;;;;;;6126469;23;19941;-88
2022/06/04 01:33:12;;;;;;;;;;;19.20;93.20;;;;;;6126675;23;19942;-88
2022/06/04 01:35:37;;;;;;;;;;;19.10;93.10;;;;;;6126281;23;19955;-89
2022/06/04 01:38:12;;;;;;;;;;;19.10;93.10;;;;;;6126158;23;20000;-88
2022/06/04 01:43:29;;;;;;;;;;;19.10;93.00;;;;;;6126327;23;19947;-88
2022/06/04 01:45:58;;;;;;;;;;;19.10;92.90;;;;;;6126272;23;19933;-88
2022/06/04 01:48:25;;;;;;;;;;;19.10;93.00;;;;;;6126091;23;19968;-89
2022/06/04 01:50:53;;;;;;;;;;;19.10;93.00;;;;;;6126214;23;20021;-88
2022/06/04 01:53:20;;;;;;;;;;;19.10;93.00;;;;;;6126119;23;19941;-89
2022/06/04 01:55:49;;;;;;;;;;;19.10;93.00;;;;;;6126240;23;19947;-88
2022/06/04 01:58:23;;;;;;;;;;;19.10;92.80;;;;;;6125996;23;19966;-88
2022/06/04 02:00:57;;;;;;;;;;;18.90;92.60;;;;;;6126233;23;19948;-89
2022/06/04 02:03:49;;;;;;;;;;;18.80;92.30;;;;;;6126220;23;20314;-89
2022/06/04 02:06:17;;;;;;;;;;;18.70;92.50;;;;;;6120235;23;19936;-89
2022/06/04 02:08:58;;;;;;;;;;;18.80;93.20;;;;;;6126222;23;19939;-89
2022/06/04 02:11:24;;;;;;;;;;;18.80;93.10;;;;;;6126114;23;19942;-88
2022/06/04 02:13:52;;;;;;;;;;;18.80;93.00;;;;;;6126164;23;19944;-89
2022/06/04 02:16:36;;;;;;;;;;;18.80;93.00;;;;;;6126141;23;19940;-88
2022/06/04 02:19:03;;;;;;;;;;;18.80;93.10;;;;;;6126032;23;20042;-89
2022/06/04 02:21:29;;;;;;;;;;;18.80;93.20;;;;;;6126088;23;20362;-88
2022/06/04 02:23:55;;;;;;;;;;;18.80;93.30;;;;;;6126110;23;19937;-88
2022/06/04 02:26:21;;;;;;;;;;;18.80;93.40;;;;;;6125805;23;19939;-88
2022/06/04 02:28:47;;;;;;;;;;;18.80;93.30;;;;;;6126339;23;19945;-89
2022/06/04 02:31:18;;;;;;;;;;;18.70;93.00;;;;;;6126099;23;19940;-88
2022/06/04 02:33:46;;;;;;;;;;;18.60;93.00;;;;;;6125918;23;19940;-88
2022/06/04 02:36:12;;;;;;;;;;;18.60;92.90;;;;;;6126781;23;19942;-89
2022/06/04 02:38:40;;;;;;;;;;;18.60;92.90;;;;;;6127656;23;19952;-88
2022/06/04 02:41:09;;;;;;;;;;;18.60;92.90;;;;;;6127795;23;19944;-88
2022/06/04 02:43:37;;;;;;;;;;;18.60;92.90;;;;;;6128124;23;19940;-88
2022/06/04 02:46:11;;;;;;;;;;;18.60;93.00;;;;;;6127755;23;19980;-88
2022/06/04 02:48:39;;;;;;;;;;;18.60;93.00;;;;;;6120238;23;20035;-88
2022/06/04 02:51:07;;;;;;;;;;;18.40;92.70;;;;;;6127804;23;19966;-89
2022/06/04 02:53:34;;;;;;;;;;;18.40;92.80;;;;;;6127607;23;20058;-88
2022/06/04 02:56:01;;;;;;;;;;;18.30;92.40;;;;;;6127566;23;19949;-88
2022/06/04 02:58:27;;;;;;;;;;;18.20;92.50;;;;;;6127637;23;19957;-88
2022/06/04 03:00:56;;;;;;;;;;;18.10;92.80;;;;;;6127616;23;19948;-89
2022/06/04 03:03:22;;;;;;;;;;;18.10;92.90;;;;;;6127608;23;19988;-88
2022/06/04 03:05:50;;;;;;;;;;;18.20;93.10;;;;;;6127581;23;19942;-88
2022/06/04 03:08:16;;;;;;;;;;;18.20;93.10;;;;;;6127572;23;19962;-88
2022/06/04 03:10:42;;;;;;;;;;;18.20;93.10;;;;;;6127585;23;20348;-88
2022/06/04 03:13:07;;;;;;;;;;;18.20;93.20;;;;;;6127621;23;19942;-88
2022/06/04 03:15:33;;;;;;;;;;;18.30;93.10;;;;;;6127488;23;19942;-88
2022/06/04 03:17:58;;;;;;;;;;;18.30;93.20;;;;;;6127311;23;20317;-88
2022/06/04 03:20:25;;;;;;;;;;;18.30;93.30;;;;;;6127440;23;20372;-88
2022/06/04 03:22:51;;;;;;;;;;;18.30;93.50;;;;;;6127491;23;19945;-88
2022/06/04 03:25:17;;;;;;;;;;;18.30;93.70;;;;;;6127239;23;19940;-88
2022/06/04 03:27:42;;;;;;;;;;;18.30;93.60;;;;;;6127326;23;20065;-88
2022/06/04 03:30:08;;;;;;;;;;;18.20;93.30;;;;;;6125765;23;19979;-88
2022/06/04 03:32:34;;;;;;;;;;;18.20;93.30;;;;;;6127642;23;20024;-88
2022/06/04 03:34:59;;;;;;;;;;;18.20;93.20;;;;;;6127240;23;20373;-88
2022/06/04 03:37:25;;;;;;;;;;;18.10;93.20;;;;;;6127218;23;19939;-88
2022/06/04 03:39:50;;;;;;;;;;;18.00;93.00;;;;;;6127148;23;19959;-88
2022/06/04 03:42:16;;;;;;;;;;;18.00;93.00;;;;;;6127291;23;19962;-88
2022/06/04 03:44:46;;;;;;;;;;;17.90;92.90;;;;;;6127215;23;19937;-88
2022/06/04 03:47:12;;;;;;;;;;;17.90;92.90;;;;;;6127116;23;19984;-88
2022/06/04 03:49:37;;;;;;;;;;;17.80;92.50;;;;;;6127242;23;19936;-88
2022/06/04 03:52:03;;;;;;;;;;;17.80;92.80;;;;;;6127079;23;20356;-88
2022/06/04 03:59:57;;;;;;;;;;;18.10;93.10;;;;;;6126951;23;20017;-88
2022/06/04 04:02:23;;;;;;;;;;;18.10;93.00;;;;;;6126972;23;19936;-88
2022/06/04 04:04:48;;;;;;;;;;;18.10;93.40;;;;;;6101219;23;20144;-88
2022/06/04 04:07:14;;;;;;;;;;;18.10;93.40;;;;;;6126988;23;19972;-88
2022/06/04 04:09:40;;;;;;;;;;;18.10;93.20;;;;;;6077137;23;20388;-88
2022/06/04 04:12:06;;;;;;;;;;;18.00;93.00;;;;;;6100977;23;19929;-88
2022/06/04 04:14:31;;;;;;;;;;;18.10;93.00;;;;;;6126902;23;20414;-88
2022/06/04 04:16:57;;;;;;;;;;;18.10;93.00;;;;;;6126909;23;20414;-88
2022/06/04 04:19:26;;;;;;;;;;;18.00;93.00;;;;;;6126786;23;19953;-88
2022/06/04 04:21:52;;;;;;;;;;;18.20;93.20;;;;;;6127166;23;19979;-88
2022/06/04 04:24:17;;;;;;;;;;;18.30;93.10;;;;;;6126799;23;19935;-88
2022/06/04 04:26:43;;;;;;;;;;;18.40;93.10;;;;;;6126770;23;20009;-88
2022/06/04 04:29:09;;;;;;;;;;;18.40;93.00;;;;;;6126736;23;20367;-88
2022/06/04 04:31:35;;;;;;;;;;;18.40;93.00;;;;;;6100804;23;19995;-88
2022/06/04 04:34:00;;;;;;;;;;;18.40;93.10;;;;;;6126634;23;19958;-88
2022/06/04 04:36:30;;;;;;;;;;;18.40;93.30;;;;;;6126722;23;19973;-88
2022/06/04 04:38:56;;;;;;;;;;;18.30;93.60;;;;;;6126595;23;19951;-88
2022/06/04 04:41:21;;;;;;;;;;;18.40;93.80;;;;;;6126675;23;20340;-88
2022/06/04 04:43:48;;;;;;;;;;;18.50;94.10;;;;;;6126705;23;19944;-88
2022/06/04 04:46:14;;;;;;;;;;;18.50;94.20;;;;;;6100582;23;19943;-88
2022/06/04 04:48:40;;;;;;;;;;;18.60;94.20;;;;;;6126474;23;20050;-88
2022/06/04 04:51:06;;;;;;;;;;;18.70;94.30;;;;;;6126635;23;19939;-88
2022/06/04 04:53:32;;;;;;;;;;;18.80;94.30;;;;;;6126421;23;20011;-88
2022/06/04 04:55:57;;;;;;;;;;;18.80;94.30;;;;;;6126544;23;20312;-88
2022/06/04 04:58:23;;;;;;;;;;;18.90;94.30;;;;;;6126282;23;20104;-88
2022/06/04 05:00:48;;;;;;;;;;;18.90;94.20;;;;;;6126570;23;19947;-88
2022/06/04 05:03:14;;;;;;;;;;;19.00;94.10;;;;;;6126507;23;19948;-88
2022/06/04 05:05:39;;;;;;;;;;;19.00;93.90;;;;;;6126490;23;20027;-88
2022/06/04 05:08:05;;;;;;;;;;;19.20;93.90;;;;;;6126468;23;19947;-88
2022/06/04 05:10:31;;;;;;;;;;;19.30;93.90;;;;;;6126472;23;19932;-89
2022/06/04 05:12:57;;;;;;;;;;;19.30;93.90;;;;;;6126404;23;20365;-88
2022/06/04 05:15:22;;;;;;;;;;;19.30;93.60;;;;;;6126440;23;19940;-89
2022/06/04 05:17:48;;;;;;;;;;;19.50;93.60;;;;;;6126411;23;19931;-88
2022/06/04 05:20:14;;;;;;;;;;;19.60;93.60;;;;;;6100368;23;19937;-89
2022/06/04 05:22:41;;;;;;;;;;;19.60;93.50;;;;;;6126368;23;20363;-89
2022/06/04 05:25:07;;;;;;;;;;;19.70;93.40;;;;;;6100521;23;19937;-88
2022/06/04 05:27:33;;;;;;;;;;;19.80;93.30;;;;;;6126237;23;19938;-89
2022/06/04 05:29:58;;;;;;;;;;;19.80;93.10;;;;;;6126318;23;19968;-89
2022/06/04 05:32:24;;;;;;;;;;;19.90;92.80;;;;;;6126425;23;19945;-88
2022/06/04 05:34:50;;;;;;;;;;;19.90;92.70;;;;;;6126257;23;19958;-89
2022/06/04 05:37:15;;;;;;;;;;;20.10;92.90;;;;;;6126359;23;19950;-88
2022/06/04 05:39:41;;;;;;;;;;;20.20;93.00;;;;;;6126224;23;20287;-89
2022/06/04 05:42:06;;;;;;;;;;;20.30;92.80;;;;;;6126445;23;20272;-88
2022/06/04 05:44:32;;;;;;;;;;;20.30;92.40;;;;;;6126214;23;19961;-88
2022/06/04 05:46:58;;;;;;;;;;;20.40;91.60;;;;;;6126181;23;19941;-89
2022/06/04 05:49:24;;;;;;;;;;;20.50;91.10;;;;;;6126560;23;19957;-89
2022/06/04 05:51:51;;;;;;;;;;;20.60;90.30;;;;;;6126322;23;19941;-88
2022/06/04 05:54:17;;;;;;;;;;;20.70;90.70;;;;;;6126042;23;19945;-89
2022/06/04 05:56:45;;;;;;;;;;;20.80;90.70;;;;;;6126276;23;19982;-88
2022/06/04 05:59:15;;;;;;;;;;;20.90;91.10;;;;;;6126504;23;19961;-89
2022/06/04 06:01:41;;;;;;;;;;;20.90;90.60;;;;;;6126242;23;19951;-88
2022/06/04 06:04:08;;;;;;;;;;;21.00;90.80;;;;;;6126217;23;19931;-88
2022/06/04 06:06:34;;;;;;;;;;;21.20;90.90;;;;;;6100254;23;19944;-88
2022/06/04 06:09:01;;;;;;;;;;;21.20;89.70;;;;;;6126276;23;19937;-88
2022/06/04 06:11:27;;;;;;;;;;;21.20;89.50;;;;;;6127213;23;19991;-89
2022/06/04 06:13:52;;;;;;;;;;;21.30;90.10;;;;;;6127997;23;19942;-88
2022/06/04 06:16:20;;;;;;;;;;;21.40;89.60;;;;;;6128119;23;19965;-89
2022/06/04 06:18:45;;;;;;;;;;;21.50;89.10;;;;;;6127759;23;19956;-89
2022/06/04 06:21:12;;;;;;;;;;;21.50;88.50;;;;;;6127923;23;19936;-88
2022/06/04 06:23:38;;;;;;;;;;;21.60;88.10;;;;;;6128099;23;19942;-89
2022/06/04 06:26:07;;;;;;;;;;;21.80;88.00;;;;;;6128055;23;20462;-89
2022/06/04 06:28:34;;;;;;;;;;;21.80;87.90;;;;;;6102138;23;19946;-88
2022/06/04 06:30:59;;;;;;;;;;;21.90;87.00;;;;;;6128009;23;19940;-89
2022/06/04 06:33:25;;;;;;;;;;;22.00;86.30;;;;;;6127834;23;19939;-88
2022/06/04 06:35:57;;;;;;;;;;;22.00;86.30;;;;;;6127909;23;19960;-89
2022/06/04 06:38:23;;;;;;;;;;;22.20;85.90;;;;;;6127790;23;19962;-89
2022/06/04 06:40:48;;;;;;;;;;;22.30;85.20;;;;;;6127889;23;19988;-88
2022/06/04 06:43:14;;;;;;;;;;;22.30;84.70;;;;;;6127740;23;19940;-89
2022/06/04 06:45:41;;;;;;;;;;;22.50;84.80;;;;;;6127617;23;20005;-89
2022/06/04 06:48:07;;;;;;;;;;;22.60;84.40;;;;;;6114039;23;20314;-89
2022/06/04 06:50:33;;;;;;;;;;;22.70;83.20;;;;;;6128118;23;19945;-89
2022/06/04 06:52:59;;;;;;;;;;;22.80;81.30;;;;;;6127740;23;20000;-89
2022/06/04 06:55:25;;;;;;;;;;;22.80;81.60;;;;;;6127118;23;19940;-89
2022/06/04 06:57:50;;;;;;;;;;;22.90;81.40;;;;;;6127762;23;19951;-89
2022/06/04 07:00:16;;;;;;;;;;;23.00;80.80;;;;;;6127638;23;20022;-89
2022/06/04 07:02:41;;;;;;;;;;;23.10;80.80;;;;;;6127779;23;19934;-89
2022/06/04 07:05:07;;;;;;;;;;;23.10;80.30;;;;;;6127660;23;19930;-89
2022/06/04 07:07:33;;;;;;;;;;;23.20;80.70;;;;;;6127689;23;19945;-89
2022/06/04 07:09:58;;;;;;;;;;;23.30;80.80;;;;;;6127650;23;20017;-89
2022/06/04 07:12:24;;;;;;;;;;;23.40;80.00;;;;;;6127611;23;19932;-89
2022/06/04 07:14:50;;;;;;;;;;;23.50;79.00;;;;;;6127578;23;19939;-89
2022/06/04 07:17:15;;;;;;;;;;;23.60;78.30;;;;;;6127546;23;20380;-89
2022/06/04 07:19:41;;;;;;;;;;;23.60;78.40;;;;;;6127453;23;19967;-89
2022/06/04 07:22:06;;;;;;;;;;;23.70;78.50;;;;;;6127268;23;20360;-89
2022/06/04 07:24:32;;;;;;;;;;;23.70;77.80;;;;;;6126693;23;20413;-89
2022/06/04 07:26:58;;;;;;;;;;;23.80;77.70;;;;;;6127261;23;19931;-89
2022/06/04 07:29:23;;;;;;;;;;;23.90;76.70;;;;;;6127308;23;19930;-88
2022/06/04 07:31:49;;;;;;;;;;;23.80;75.90;;;;;;6127342;23;19939;-89
2022/06/04 07:34:14;;;;;;;;;;;23.90;76.00;;;;;;6127330;23;19957;-89
2022/06/04 07:36:41;;;;;;;;;;;24.00;75.60;;;;;;6127398;23;20433;-89
2022/06/04 07:39:09;;;;;;;;;;;24.10;76.00;;;;;;6127873;23;19984;-89
2022/06/04 07:41:36;;;;;;;;;;;24.20;76.00;;;;;;6127440;23;19940;-89
2022/06/04 07:44:02;;;;;;;;;;;24.30;76.50;;;;;;6127346;23;19937;-89
2022/06/04 07:46:28;;;;;;;;;;;24.30;76.90;;;;;;6127364;23;19969;-89
2022/06/04 07:48:54;;;;;;;;;;;24.30;76.70;;;;;;6127005;23;19995;-89
2022/06/04 07:51:20;;;;;;;;;;;24.30;77.30;;;;;;6127291;23;20366;-89
2022/06/04 07:53:46;;;;;;;;;;;24.20;76.60;;;;;;6127186;23;19942;-89
2022/06/04 07:56:13;;;;;;;;;;;24.30;77.40;;;;;;6127053;23;20018;-89
2022/06/04 07:58:39;;;;;;;;;;;24.30;76.10;;;;;;6127441;23;20044;-89
2022/06/04 08:01:05;;;;;;;;;;;24.30;76.20;;;;;;6126997;23;20380;-89
2022/06/04 08:03:31;;;;;;;;;;;24.40;76.80;;;;;;6127115;23;20285;-89
2022/06/04 08:05:57;;;;;;;;;;;24.50;76.10;;;;;;6126828;23;19932;-89
2022/06/04 08:08:22;;;;;;;;;;;24.50;76.70;;;;;;6126474;23;19943;-89
2022/06/04 08:10:49;;;;;;;;;;;24.40;75.60;;;;;;6126803;23;19945;-89
2022/06/04 08:13:36;;;;;;;;;;;24.40;75.50;;;;;;6126783;23;20350;-89
2022/06/04 08:16:01;;;;;;;;;;;24.50;75.30;;;;;;6126147;23;19945;-89
2022/06/04 08:18:26;;;;;;;;;;;24.50;75.80;;;;;;6126745;23;19964;-89
2022/06/04 08:20:53;;;;;;;;;;;24.60;75.70;;;;;;6126753;23;19940;-89
2022/06/04 08:23:19;;;;;;;;;;;24.50;74.60;;;;;;6127170;23;19983;-89
2022/06/04 08:25:47;;;;;;;;;;;24.60;74.60;;;;;;6126810;23;19941;-89
2022/06/04 08:28:14;;;;;;;;;;;24.70;73.50;;;;;;6126978;23;19939;-91
2022/06/04 08:30:40;;;;;;;;;;;24.90;73.70;;;;;;6127380;23;19951;-91
2022/06/04 08:33:05;;;;;;;;;;;24.80;73.60;;;;;;6126790;23;19972;-90
2022/06/04 08:35:31;;;;;;;;;;;24.90;73.50;;;;;;6126622;23;19953;-90
2022/06/04 08:37:57;;;;;;;;;;;24.80;73.70;;;;;;6127253;23;20019;-91
2022/06/04 08:40:22;;;;;;;;;;;24.80;73.50;;;;;;6127117;23;19962;-91
2022/06/04 08:42:57;;;;;;;;;;;24.90;74.30;;;;;;6126986;23;20267;-91
2022/06/04 08:45:23;;;;;;;;;;;25.20;75.20;;;;;;6127201;23;19944;-91
2022/06/04 08:47:49;;;;;;;;;;;25.40;73.60;;;;;;6140722;23;19979;-91
2022/06/04 08:50:19;;;;;;;;;;;25.60;70.40;;;;;;6156865;23;20060;-91
2022/06/04 08:52:49;;;;;;;;;;;25.70;70.00;;;;;;6156451;23;20358;-91
2022/06/04 08:58:03;;;;;;;;;;;25.80;70.10;;;;;;6156404;23;19943;-91
2022/06/04 09:43:37;;;;;;;;;;;26.00;66.60;;;;;;6186015;23;20273;-91
2022/06/04 09:46:04;;;;;;;;;;;26.20;67.70;;;;;;6161051;23;19991;-91
2022/06/04 09:48:34;;;;;;;;;;;26.30;63.80;;;;;;6187775;23;20034;-91
2022/06/04 09:51:02;;;;;;;;;;;26.40;61.90;;;;;;6188236;23;19964;-91
2022/06/04 09:53:29;;;;;;;;;;;26.60;60.50;;;;;;6187794;23;19975;-91
2022/06/04 09:56:07;;;;;;;;;;;26.50;60.90;;;;;;6187858;23;19939;-91
2022/06/04 09:58:34;;;;;;;;;;;26.60;62.70;;;;;;6187752;23;19956;-91
2022/06/04 10:00:59;;;;;;;;;;;26.70;64.50;;;;;;6187733;23;20275;-91
2022/06/04 10:03:26;;;;;;;;;;;26.80;65.60;;;;;;6188104;23;19936;-91
2022/06/04 10:06:03;;;;;;;;;;;26.90;65.10;;;;;;6187763;23;19933;-91
2022/06/04 10:08:29;;;;;;;;;;;27.00;66.60;;;;;;6188179;23;19937;-91
2022/06/04 10:11:05;;;;;;;;;;;27.10;65.60;;;;;;6187600;23;19942;-91
2022/06/04 10:13:48;;;;;;;;;;;27.20;63.80;;;;;;6187846;23;20003;-91
2022/06/04 10:16:14;;;;;;;;;;;27.20;64.10;;;;;;6187904;23;19985;-91
2022/06/04 10:18:40;;;;;;;;;;;27.40;64.70;;;;;;6187618;23;20038;-91
2022/06/04 10:21:16;;;;;;;;;;;27.60;64.70;;;;;;6187778;23;20016;-91
2022/06/04 10:23:43;;;;;;;;;;;27.60;64.70;;;;;;6187773;23;19941;-91
2022/06/04 10:26:47;;;;;;;;;;;27.60;63.90;;;;;;6187762;23;20266;-91
2022/06/04 10:29:24;;;;;;;;;;;27.70;65.60;;;;;;6039086;23;20011;-91
2022/06/04 10:32:05;;;;;;;;;;;27.70;61.90;;;;;;6039128;23;19936;-91
2022/06/04 10:34:33;;;;;;;;;;;27.60;60.80;;;;;;6135024;23;19958;-91
2022/06/04 10:36:58;;;;;;;;;;;27.70;61.80;;;;;;6187697;23;20022;-91
2022/06/04 10:39:30;;;;;;;;;;;27.80;60.40;;;;;;6187433;23;20001;-91
2022/06/04 10:42:09;;;;;;;;;;;27.70;59.80;;;;;;6161284;23;19939;-91
2022/06/04 10:44:37;;;;;;;;;;;27.80;57.50;;;;;;6187404;23;19942;-91
2022/06/04 10:47:05;;;;;;;;;;;27.80;57.80;;;;;;6187261;23;20434;-91
2022/06/04 10:49:31;;;;;;;;;;;27.90;57.80;;;;;;6187436;23;20013;-91
2022/06/04 10:51:59;;;;;;;;;;;28.00;58.90;;;;;;6187368;23;20379;-91
2022/06/04 10:57:43;;;;;;;;;;;28.10;57.90;;;;;;6187118;23;19978;-91
2022/06/04 11:00:08;;;;;;;;;;;28.30;58.40;;;;;;6187252;23;20364;-91
2022/06/04 11:02:34;;;;;;;;;;;28.50;57.40;;;;;;6160795;23;19953;-91
2022/06/04 11:05:02;;;;;;;;;;;28.80;58.50;;;;;;6187379;23;20008;-91
2022/06/04 11:07:33;;;;;;;;;;;29.00;57.50;;;;;;6187349;23;19943;-91
2022/06/04 11:09:59;;;;;;;;;;;28.80;57.00;;;;;;6187351;23;20014;-91
